Time;durP1;ratioP1;P1;durP2;ratioP2;P2;SDS_P1;SDS_P2;PMS_P1;PMS_P2;Temp;Humidity;BMP_temperature;BMP_pressure;BME280_temperature;BME280_humidity;BME280_pressure;Samples;Min_cycle;Max_cycle;Signal;HPM_P1;HPM_P2
2023/05/28 00:00:13;;;;;;;6.57;3.08;;;;;;;14.24;51.72;100895.81;5000286;28;20042;-47
2023/05/28 00:02:40;;;;;;;7.30;2.30;;;;;;;14.22;52.41;100895.81;5003113;28;20053;-49
2023/05/28 00:05:07;;;;;;;5.75;2.50;;;;;;;14.18;51.63;100890.63;5001215;28;20054;-51
2023/05/28 00:07:34;;;;;;;8.50;2.85;;;;;;;14.13;51.99;100890.66;5002043;28;20397;-47
2023/05/28 00:10:01;;;;;;;7.40;2.63;;;;;;;14.09;52.35;100889.78;5005331;28;20624;-48
2023/05/28 00:12:27;;;;;;;6.97;2.25;;;;;;;14.06;52.85;100894.16;5000652;28;20073;-46
2023/05/28 00:14:54;;;;;;;9.55;2.05;;;;;;;14.03;53.08;100884.59;5003117;28;20054;-50
2023/05/28 00:17:21;;;;;;;7.72;2.35;;;;;;;14.02;52.07;100882.88;5005034;28;20058;-45
2023/05/28 00:19:48;;;;;;;6.18;2.53;;;;;;;14.01;52.55;100881.13;5005349;28;20049;-51
2023/05/28 00:22:15;;;;;;;6.63;2.53;;;;;;;14.02;52.46;100885.50;5000438;28;20108;-47
2023/05/28 00:24:42;;;;;;;9.82;3.47;;;;;;;13.99;52.99;100893.31;5002326;28;20478;-46
2023/05/28 00:27:08;;;;;;;9.35;3.45;;;;;;;13.93;52.95;100888.97;4997017;28;20042;-46
2023/05/28 00:29:35;;;;;;;7.70;2.17;;;;;;;13.85;53.51;100881.19;5002131;28;20486;-48
2023/05/28 00:32:02;;;;;;;6.15;3.00;;;;;;;13.81;53.66;100874.25;5006452;28;20498;-51
2023/05/28 00:34:29;;;;;;;9.55;3.63;;;;;;;13.74;53.47;100877.75;5004105;28;20050;-49
2023/05/28 00:36:55;;;;;;;9.48;2.30;;;;;;;13.70;53.47;100881.22;5006968;28;20080;-48
2023/05/28 00:39:22;;;;;;;7.97;2.22;;;;;;;13.67;52.36;100878.63;5007682;28;20560;-51
2023/05/28 00:42:00;;;;;;;6.72;2.58;;;;;;;13.60;53.40;100873.44;5004303;28;20418;-47
2023/05/28 00:44:27;;;;;;;10.93;2.80;;;;;;;13.58;53.59;100875.16;5005006;28;20047;-50
2023/05/28 00:46:55;;;;;;;5.05;2.75;;;;;;;13.57;53.53;100870.84;5002994;28;20053;-49
2023/05/28 00:49:22;;;;;;;7.57;2.65;;;;;;;13.57;53.76;100868.25;5006680;28;20061;-48
2023/05/28 00:51:49;;;;;;;8.40;2.22;;;;;;;13.54;53.04;100870.84;5008868;28;20050;-45
2023/05/28 00:54:16;;;;;;;7.93;2.97;;;;;;;13.53;53.39;100869.13;5005898;28;20045;-51
2023/05/28 00:56:43;;;;;;;11.48;3.00;;;;;;;13.50;53.56;100863.91;5001974;28;20050;-50
2023/05/28 00:59:12;;;;;;;8.32;3.47;;;;;;;13.47;54.07;100858.66;5003383;28;20041;-50
2023/05/28 01:01:39;;;;;;;12.70;3.10;;;;;;;13.45;53.58;100865.63;5006407;28;20073;-48
2023/05/28 01:04:06;;;;;;;8.00;3.30;;;;;;;13.42;54.18;100865.63;5008087;28;20468;-45
2023/05/28 01:06:33;;;;;;;9.30;2.85;;;;;;;13.39;53.42;100856.09;5008424;28;20104;-51
2023/05/28 01:08:59;;;;;;;8.43;2.63;;;;;;;13.34;53.67;100853.50;5007544;28;20056;-49
2023/05/28 01:11:26;;;;;;;7.30;2.92;;;;;;;13.31;53.89;100850.88;5003890;28;20057;-48
2023/05/28 01:13:54;;;;;;;7.38;2.33;;;;;;;13.29;54.63;100855.25;5007831;28;20046;-51
2023/05/28 01:16:21;;;;;;;8.07;2.78;;;;;;;13.27;53.55;100856.97;5004965;28;20046;-51
2023/05/28 01:18:48;;;;;;;6.68;2.45;;;;;;;13.23;54.40;100853.50;5007214;28;20045;-50
2023/05/28 01:21:16;;;;;;;8.18;2.38;;;;;;;13.22;54.61;100863.91;5006415;28;20527;-49
2023/05/28 01:23:44;;;;;;;8.48;2.47;;;;;;;13.20;53.93;100855.22;5004328;28;20061;-47
2023/05/28 01:26:13;;;;;;;7.97;2.58;;;;;;;13.17;55.08;100855.25;5004641;28;20133;-49
2023/05/28 01:28:44;;;;;;;9.20;3.17;;;;;;;13.16;53.82;100853.50;5007287;28;20046;-52
2023/05/28 01:31:12;;;;;;;7.57;2.55;;;;;;;13.14;54.38;100861.31;5006038;28;20045;-48
2023/05/28 01:33:41;;;;;;;7.75;2.72;;;;;;;13.12;54.30;100852.66;5003859;28;20128;-48
2023/05/28 01:36:19;;;;;;;6.60;2.60;;;;;;;13.08;55.15;100856.97;5001086;28;20052;-47
2023/05/28 01:38:48;;;;;;;9.55;3.38;;;;;;;13.07;54.05;100860.44;5006399;28;20042;-48
2023/05/28 01:41:15;;;;;;;8.55;3.30;;;;;;;13.04;55.30;100865.66;5002403;28;20054;-50
2023/05/28 01:43:44;;;;;;;10.70;2.53;;;;;;;13.01;55.13;100859.59;5007435;28;20050;-50
2023/05/28 01:46:11;;;;;;;7.22;2.53;;;;;;;12.97;54.39;100858.72;5001600;28;20049;-48
2023/05/28 01:48:39;;;;;;;10.73;2.80;;;;;;;12.91;54.71;100858.72;5007319;28;20053;-48
2023/05/28 01:51:06;;;;;;;11.20;2.95;;;;;;;12.88;54.86;100864.78;5005945;28;20477;-48
2023/05/28 01:53:33;;;;;;;7.97;3.25;;;;;;;12.87;55.52;100869.97;5005180;28;20301;-46
2023/05/28 01:56:01;;;;;;;7.05;2.13;;;;;;;12.83;54.97;100869.09;5005642;28;20056;-47
2023/05/28 01:58:29;;;;;;;6.38;2.85;;;;;;;12.82;55.82;100870.84;5004549;28;20054;-49
2023/05/28 02:01:22;;;;;;;6.72;2.92;;;;;;;12.79;55.51;100867.34;5005736;28;20104;-52
2023/05/28 02:03:49;;;;;;;5.20;2.60;;;;;;;12.78;55.84;100869.13;5002082;28;20042;-47
2023/05/28 02:06:16;;;;;;;7.32;2.50;;;;;;;12.77;55.52;100859.56;5005302;28;20100;-49
2023/05/28 02:08:42;;;;;;;4.90;2.63;;;;;;;12.75;54.98;100858.72;5005651;28;20057;-49
2023/05/28 02:11:09;;;;;;;5.07;2.35;;;;;;;12.70;55.61;100865.63;5004867;28;20050;-47
2023/05/28 02:13:36;;;;;;;7.63;3.38;;;;;;;12.58;55.16;100869.94;5004487;28;20081;-47
2023/05/28 02:16:02;;;;;;;6.95;3.10;;;;;;;12.41;55.13;100863.81;5001210;28;20057;-48
2023/05/28 02:18:29;;;;;;;7.60;2.75;;;;;;;12.28;55.78;100866.41;5006630;28;20072;-47
2023/05/28 02:20:56;;;;;;;6.22;2.47;;;;;;;12.21;56.35;100869.84;5002076;28;20049;-49
2023/05/28 02:23:22;;;;;;;7.38;2.45;;;;;;;12.16;56.60;100868.97;5002829;28;20482;-50
2023/05/28 02:25:49;;;;;;;8.50;3.47;;;;;;;12.10;56.29;100868.91;5000976;28;20073;-48
2023/05/28 02:28:17;;;;;;;9.85;3.55;;;;;;;12.05;56.72;100872.34;5005186;28;20680;-46
2023/05/28 02:30:43;;;;;;;10.48;3.28;;;;;;;12.02;55.68;100869.72;5004005;28;20168;-48
2023/05/28 02:33:10;;;;;;;8.48;2.95;;;;;;;12.01;56.70;100865.41;5001810;28;20577;-46
2023/05/28 02:35:36;;;;;;;10.43;3.28;;;;;;;12.03;56.69;100862.81;5002880;28;20062;-48
2023/05/28 02:38:03;;;;;;;13.27;3.72;;;;;;;12.02;56.83;100861.94;4999664;28;20042;-48
2023/05/28 02:40:29;;;;;;;7.90;3.92;;;;;;;11.98;56.15;100865.38;5003720;28;20105;-48
2023/05/28 02:42:56;;;;;;;10.35;3.30;;;;;;;11.99;56.63;100872.28;5003940;28;20054;-48
2023/05/28 02:45:23;;;;;;;9.25;3.80;;;;;;;12.00;57.74;100863.66;5003646;28;20042;-48
2023/05/28 02:47:49;;;;;;;9.05;3.83;;;;;;;12.01;57.19;100865.41;5006534;28;20072;-48
2023/05/28 02:50:16;;;;;;;9.43;3.15;;;;;;;12.01;57.95;100864.50;5002847;28;20081;-49
2023/05/28 02:52:43;;;;;;;11.00;3.65;;;;;;;12.00;57.07;100868.84;5000823;28;20056;-49
2023/05/28 02:55:09;;;;;;;8.90;3.20;;;;;;;11.99;58.02;100872.28;5002371;28;20678;-49
2023/05/28 02:57:36;;;;;;;12.40;4.07;;;;;;;11.99;57.17;100867.09;5002473;28;20505;-48
2023/05/28 03:00:04;;;;;;;9.35;3.85;;;;;;;11.99;58.65;100869.69;5005333;28;20049;-46
2023/05/28 03:02:30;;;;;;;14.57;4.47;;;;;;;11.99;57.73;100867.09;5004579;28;20060;-45
2023/05/28 03:05:01;;;;;;;8.77;3.35;;;;;;;11.99;58.22;100871.44;5003053;28;20088;-48
2023/05/28 03:07:29;;;;;;;7.40;3.83;;;;;;;11.98;57.52;100873.16;5004846;28;20045;-46
2023/05/28 03:09:57;;;;;;;9.43;3.80;;;;;;;11.99;58.30;100866.25;4999779;28;20124;-48
2023/05/28 03:12:24;;;;;;;11.52;4.20;;;;;;;11.98;58.04;100864.50;5003594;28;20476;-49
2023/05/28 03:14:50;;;;;;;10.02;3.45;;;;;;;11.97;58.87;100866.25;5004975;28;20050;-47
2023/05/28 03:17:17;;;;;;;8.80;3.65;;;;;;;11.96;58.40;100867.97;5002558;28;20076;-47
2023/05/28 03:19:43;;;;;;;10.18;4.15;;;;;;;11.96;58.41;100872.31;5003863;28;20422;-48
2023/05/28 03:22:10;;;;;;;9.77;3.78;;;;;;;11.96;58.84;100867.09;4998395;28;20050;-46
2023/05/28 03:24:39;;;;;;;11.32;3.38;;;;;;;11.95;58.94;100870.53;5003032;28;20550;-47
2023/05/28 03:27:05;;;;;;;9.90;3.78;;;;;;;11.93;59.08;100872.28;5004785;28;20317;-49
2023/05/28 03:29:32;;;;;;;11.77;3.72;;;;;;;11.93;58.99;100872.28;5004282;28;20442;-46
2023/05/28 03:31:59;;;;;;;11.05;4.10;;;;;;;11.92;58.76;100873.16;5005998;28;20100;-45
2023/05/28 03:34:25;;;;;;;8.93;3.92;;;;;;;11.90;59.02;100878.34;5002337;28;20045;-50
2023/05/28 03:36:52;;;;;;;10.63;3.92;;;;;;;11.91;59.09;100874.00;5003548;28;20045;-52
2023/05/28 03:39:19;;;;;;;11.48;3.08;;;;;;;11.90;59.23;100872.25;5004765;28;20129;-49
2023/05/28 03:41:45;;;;;;;9.00;3.85;;;;;;;11.90;58.73;100875.75;5001176;28;20049;-48
2023/05/28 03:44:12;;;;;;;7.90;3.22;;;;;;;11.91;59.90;100874.00;4999700;28;20101;-47
2023/05/28 03:46:39;;;;;;;10.23;4.55;;;;;;;11.92;59.87;100875.75;4999491;28;20046;-47
2023/05/28 03:49:06;;;;;;;7.75;3.20;;;;;;;11.92;60.01;100883.53;5000713;28;20860;-46
2023/05/28 03:51:33;;;;;;;12.32;3.58;;;;;;;11.93;59.99;100882.66;5001849;28;20048;-50
2023/05/28 03:54:00;;;;;;;12.65;3.47;;;;;;;11.94;59.26;100879.19;5003944;28;20053;-45
2023/05/28 03:56:27;;;;;;;8.88;3.55;;;;;;;11.93;60.53;100877.47;5003381;28;20560;-46
2023/05/28 03:58:54;;;;;;;5.88;2.55;;;;;;;11.95;60.25;100886.13;5001767;28;20050;-47
2023/05/28 04:01:21;;;;;;;9.30;3.03;;;;;;;11.97;59.97;100884.41;5002154;28;20053;-45
2023/05/28 04:03:47;;;;;;;8.68;2.78;;;;;;;11.99;59.45;100882.69;5005007;28;20080;-45
2023/05/28 04:06:14;;;;;;;6.38;2.45;;;;;;;12.00;61.11;100884.44;5005989;28;20042;-47
2023/05/28 04:08:42;;;;;;;9.02;3.20;;;;;;;12.06;60.60;100889.66;5006008;28;20053;-46
2023/05/28 04:11:08;;;;;;;7.28;2.97;;;;;;;12.11;61.39;100892.31;5001946;28;22459;-46
2023/05/28 04:13:35;;;;;;;8.32;2.92;;;;;;;12.14;60.37;100892.31;5004995;28;20413;-46
2023/05/28 04:16:02;;;;;;;10.85;3.00;;;;;;;12.17;61.14;100896.66;5003882;28;20587;-47
2023/05/28 04:18:29;;;;;;;6.55;2.65;;;;;;;12.20;60.07;100896.66;5007380;28;20129;-48
2023/05/28 04:20:56;;;;;;;9.25;3.08;;;;;;;12.21;60.87;100895.81;5004160;28;20050;-45
2023/05/28 04:23:22;;;;;;;9.18;3.53;;;;;;;12.23;61.59;100896.69;5007063;28;20045;-46
2023/05/28 04:25:50;;;;;;;9.00;3.15;;;;;;;12.27;61.37;100901.03;5006065;28;20054;-46
2023/05/28 04:28:17;;;;;;;6.32;2.40;;;;;;;12.29;62.03;100896.69;5008967;28;20053;-46
2023/05/28 04:30:43;;;;;;;7.15;2.55;;;;;;;12.33;61.62;100901.03;5008781;28;20048;-49
2023/05/28 04:33:10;;;;;;;7.72;3.03;;;;;;;12.38;61.92;100905.38;5009290;28;20478;-48
2023/05/28 04:35:37;;;;;;;8.35;2.13;;;;;;;12.41;61.01;100902.78;5007183;28;20103;-46
2023/05/28 04:38:04;;;;;;;7.28;2.72;;;;;;;12.45;62.30;100901.94;5007926;28;20076;-49
2023/05/28 04:40:30;;;;;;;6.88;2.63;;;;;;;12.46;61.20;100899.34;5006497;28;20050;-45
2023/05/28 04:42:57;;;;;;;8.20;3.35;;;;;;;12.51;60.97;100898.50;5008818;28;20054;-47
2023/05/28 04:45:24;;;;;;;5.88;2.80;;;;;;;12.53;62.34;100900.22;5007385;28;20062;-46
2023/05/28 04:47:51;;;;;;;7.15;2.42;;;;;;;12.57;60.78;100896.78;5009668;28;20056;-46
2023/05/28 04:50:18;;;;;;;6.93;2.50;;;;;;;12.60;61.34;100902.00;5007684;28;20496;-49
2023/05/28 04:52:45;;;;;;;6.88;2.38;;;;;;;12.64;62.31;100909.81;5008074;28;20059;-51
2023/05/28 04:55:12;;;;;;;6.65;2.70;;;;;;;12.68;61.93;100908.94;5006447;28;20041;-48
2023/05/28 04:57:38;;;;;;;6.80;2.17;;;;;;;12.73;61.55;100912.41;5006920;28;20129;-45
2023/05/28 05:00:12;;;;;;;7.50;2.50;;;;;;;12.79;61.56;100903.75;5006542;28;20056;-46
2023/05/28 05:02:43;;;;;;;8.45;2.92;;;;;;;12.88;61.26;100906.38;5001844;28;20520;-47
2023/05/28 05:05:10;;;;;;;6.75;2.33;;;;;;;12.95;62.43;100907.25;5008605;28;20062;-46
2023/05/28 05:07:37;;;;;;;5.00;1.98;;;;;;;13.04;62.04;100906.41;5006301;28;20637;-47
2023/05/28 05:10:08;;;;;;;5.85;2.60;;;;;;;13.13;62.34;100905.56;5007252;28;20053;-49
2023/05/28 05:12:35;;;;;;;4.43;1.73;;;;;;;13.20;62.62;100905.53;5007895;28;20050;-48
2023/05/28 05:15:03;;;;;;;7.05;2.60;;;;;;;13.28;62.23;100915.09;5001923;28;20666;-46
2023/05/28 05:17:30;;;;;;;5.28;2.17;;;;;;;13.36;62.35;100908.13;5006624;28;20046;-46
2023/05/28 05:19:57;;;;;;;5.38;2.35;;;;;;;13.44;62.44;100916.81;5012417;28;20478;-47
2023/05/28 05:22:24;;;;;;;5.53;1.98;;;;;;;13.54;61.54;100912.47;5008232;28;20056;-44
2023/05/28 05:24:51;;;;;;;9.25;2.38;;;;;;;13.66;61.31;100910.72;5007935;28;20073;-47
2023/05/28 05:27:17;;;;;;;4.68;2.55;;;;;;;13.73;61.52;100909.84;5005784;28;20049;-45
2023/05/28 05:29:44;;;;;;;4.25;2.15;;;;;;;13.81;62.53;100909.84;5002546;28;20133;-48
2023/05/28 05:32:10;;;;;;;5.80;2.35;;;;;;;13.88;62.21;100915.03;5007837;28;20505;-44
2023/05/28 05:34:37;;;;;;;5.43;2.38;;;;;;;13.96;61.63;100920.22;5007322;28;20045;-47
2023/05/28 05:37:04;;;;;;;8.60;2.55;;;;;;;14.05;61.76;100921.91;5008057;28;20719;-47
2023/05/28 05:39:30;;;;;;;4.57;2.05;;;;;;;14.10;62.02;100921.91;5007582;28;20122;-49
2023/05/28 05:41:57;;;;;;;3.63;1.80;;;;;;;14.14;61.72;100918.44;5006639;28;20045;-48
2023/05/28 05:44:24;;;;;;;5.43;1.88;;;;;;;14.17;61.92;100920.16;4986577;28;20046;-49
2023/05/28 05:46:51;;;;;;;4.22;1.80;;;;;;;14.19;61.81;100923.63;5001153;28;20053;-49
2023/05/28 05:49:18;;;;;;;4.43;1.88;;;;;;;14.21;62.54;100922.75;5007280;28;20050;-46
2023/05/28 05:51:44;;;;;;;5.35;2.25;;;;;;;14.22;62.53;100916.66;5006440;28;20077;-45
2023/05/28 05:54:11;;;;;;;5.13;2.05;;;;;;;14.24;62.27;100921.84;5005753;28;20042;-44
2023/05/28 05:56:38;;;;;;;4.68;2.10;;;;;;;14.28;62.66;100915.75;5003498;28;20050;-51
2023/05/28 05:59:05;;;;;;;4.15;1.75;;;;;;;14.36;62.86;100919.19;5001524;28;20050;-45
2023/05/28 06:01:32;;;;;;;4.57;1.70;;;;;;;14.48;63.04;100925.22;4998892;28;20048;-48
2023/05/28 06:03:58;;;;;;;4.57;1.98;;;;;;;14.58;62.46;100924.31;4998971;28;20053;-45
2023/05/28 06:06:26;;;;;;;6.38;2.03;;;;;;;14.71;62.41;100916.41;5005937;28;20409;-47
2023/05/28 06:08:53;;;;;;;3.45;1.73;;;;;;;14.78;61.98;100920.75;5007888;28;20064;-45
2023/05/28 06:11:21;;;;;;;6.50;1.90;;;;;;;14.85;62.31;100912.03;5000651;28;20513;-46
2023/05/28 06:13:50;;;;;;;3.72;1.67;;;;;;;14.98;62.92;100922.34;5004099;28;20077;-46
2023/05/28 06:16:17;;;;;;;4.95;2.22;;;;;;;15.13;62.70;100913.56;5007879;28;20481;-46
2023/05/28 06:18:44;;;;;;;5.38;1.45;;;;;;;15.30;62.78;100923.84;5001431;28;20050;-50
2023/05/28 06:21:11;;;;;;;4.07;1.92;;;;;;;15.42;62.16;100913.31;5003642;28;20225;-47
2023/05/28 06:23:37;;;;;;;4.32;1.50;;;;;;;15.52;62.15;100918.44;5007225;28;20469;-47
2023/05/28 06:26:04;;;;;;;6.32;2.50;;;;;;;15.65;62.32;100921.81;4990931;28;20042;-50
2023/05/28 06:28:31;;;;;;;4.10;1.65;;;;;;;15.79;61.88;100927.75;4985693;28;20050;-48
2023/05/28 06:30:58;;;;;;;2.25;1.02;;;;;;;15.98;62.24;100931.94;4986472;28;20053;-47
2023/05/28 06:33:25;;;;;;;3.35;1.10;;;;;;;16.17;61.91;100938.69;4987334;28;20046;-49
2023/05/28 06:35:52;;;;;;;3.30;1.38;;;;;;;16.40;61.37;100934.94;4987079;28;20042;-46
2023/05/28 06:38:19;;;;;;;4.75;2.22;;;;;;;16.60;61.17;100931.19;4986947;28;20046;-47
2023/05/28 06:40:46;;;;;;;5.15;1.75;;;;;;;16.80;61.68;100937.88;4984989;28;20502;-48
2023/05/28 06:43:12;;;;;;;3.13;1.20;;;;;;;16.94;61.63;100935.94;4986669;28;20042;-45
2023/05/28 06:45:39;;;;;;;4.25;1.70;;;;;;;17.13;60.81;100946.16;4986091;28;20077;-46
2023/05/28 06:48:06;;;;;;;4.93;1.77;;;;;;;17.27;60.66;100939.81;4986943;28;20046;-46
2023/05/28 06:50:32;;;;;;;2.25;1.25;;;;;;;17.38;60.31;100942.25;4986704;28;20061;-46
2023/05/28 06:53:00;;;;;;;4.30;1.48;;;;;;;17.53;59.49;100943.75;4985591;28;20058;-48
2023/05/28 06:55:27;;;;;;;5.57;1.50;;;;;;;17.70;59.63;100952.16;4984120;28;20084;-45
2023/05/28 06:57:53;;;;;;;3.67;1.77;;;;;;;17.88;58.63;100947.50;4986709;28;20721;-48
2023/05/28 07:00:21;;;;;;;3.85;2.00;;;;;;;17.94;59.18;100949.13;4987001;28;20046;-46
2023/05/28 07:02:47;;;;;;;5.03;1.67;;;;;;;17.93;58.59;100947.41;4986102;28;20046;-49
2023/05/28 07:05:14;;;;;;;4.85;1.80;;;;;;;17.90;58.90;100945.69;4985501;28;20042;-47
2023/05/28 07:07:41;;;;;;;5.85;2.28;;;;;;;17.89;58.30;100945.72;4986726;28;20474;-45
2023/05/28 07:10:09;;;;;;;3.45;1.85;;;;;;;17.84;58.51;100948.44;4983240;28;20052;-46
2023/05/28 07:12:38;;;;;;;5.85;1.55;;;;;;;17.81;58.43;100943.25;4975078;28;20045;-47
2023/05/28 07:15:06;;;;;;;4.72;1.30;;;;;;;17.80;58.87;100957.25;4979466;28;20047;-47
2023/05/28 07:17:32;;;;;;;4.70;2.08;;;;;;;17.83;58.08;100960.69;4986098;28;20395;-46
2023/05/28 07:19:59;;;;;;;3.72;1.77;;;;;;;17.86;58.12;100957.13;5002364;28;20064;-48
2023/05/28 07:22:26;;;;;;;5.20;1.75;;;;;;;17.90;58.88;100953.56;5002367;28;20049;-46
2023/05/28 07:24:53;;;;;;;4.45;2.00;;;;;;;17.94;58.93;100955.22;5000963;28;20131;-49
2023/05/28 07:27:20;;;;;;;4.10;1.33;;;;;;;18.02;58.07;100951.59;4984571;28;20149;-47
2023/05/28 07:29:46;;;;;;;5.57;1.67;;;;;;;18.05;58.01;100962.03;4987240;28;20138;-49
2023/05/28 07:32:13;;;;;;;5.25;1.40;;;;;;;18.10;57.72;100960.19;4986696;28;20497;-48
2023/05/28 07:34:41;;;;;;;5.10;1.50;;;;;;;18.18;57.89;100967.94;4984997;28;20047;-45
2023/05/28 07:37:08;;;;;;;3.92;1.52;;;;;;;18.28;57.25;100974.72;4983814;28;20050;-47
2023/05/28 07:39:34;;;;;;;7.25;2.00;;;;;;;18.37;57.62;100969.28;4986089;28;20043;-48
2023/05/28 07:42:01;;;;;;;4.18;2.15;;;;;;;18.43;57.09;100964.78;4983743;28;20052;-47
2023/05/28 07:44:28;;;;;;;5.68;1.98;;;;;;;18.56;57.02;100963.66;5004740;28;20144;-47
2023/05/28 07:46:54;;;;;;;6.47;2.10;;;;;;;18.71;56.72;100965.06;5006447;28;20053;-47
2023/05/28 07:49:21;;;;;;;6.30;2.17;;;;;;;18.87;56.87;100977.84;5009081;28;20058;-49
2023/05/28 07:51:48;;;;;;;8.93;2.97;;;;;;;19.00;56.16;100979.31;5009858;28;20049;-47
2023/05/28 07:54:15;;;;;;;8.48;2.35;;;;;;;19.17;56.61;100978.06;5008185;28;20098;-47
2023/05/28 07:56:41;;;;;;;8.07;2.13;;;;;;;19.38;56.03;100979.31;5004317;28;20042;-47
2023/05/28 07:59:09;;;;;;;7.53;2.28;;;;;;;19.59;55.64;100976.19;5007796;28;20054;-46
2023/05/28 08:01:37;;;;;;;5.85;2.22;;;;;;;19.70;55.49;100982.03;5007146;28;20417;-49
2023/05/28 08:04:03;;;;;;;6.60;2.75;;;;;;;19.81;55.24;100983.50;5002150;28;20152;-52
2023/05/28 08:06:31;;;;;;;8.32;2.55;;;;;;;20.07;55.14;100976.69;5004692;28;20046;-49
2023/05/28 08:08:58;;;;;;;7.38;2.72;;;;;;;20.36;55.29;100972.41;5005498;28;20648;-48
2023/05/28 08:11:25;;;;;;;5.07;2.25;;;;;;;20.62;53.53;100987.41;5003778;28;20054;-48
2023/05/28 08:13:52;;;;;;;6.90;2.55;;;;;;;20.77;53.40;100988.69;5007602;28;20049;-46
2023/05/28 08:16:19;;;;;;;6.78;2.35;;;;;;;20.96;53.19;100997.81;5000898;28;20065;-46
2023/05/28 08:18:45;;;;;;;6.65;2.47;;;;;;;21.16;53.49;100997.22;5008217;28;20101;-47
2023/05/28 08:21:12;;;;;;;5.15;2.78;;;;;;;21.36;52.69;100990.44;5007507;28;20591;-46
2023/05/28 08:23:39;;;;;;;5.38;2.15;;;;;;;21.51;51.92;100994.34;5009125;28;20052;-48
2023/05/28 08:26:06;;;;;;;8.68;2.25;;;;;;;21.70;52.27;100989.28;4999259;28;20045;-46
2023/05/28 08:28:32;;;;;;;5.90;3.00;;;;;;;21.82;51.42;100994.16;5009455;28;20042;-47
2023/05/28 08:31:02;;;;;;;6.63;2.83;;;;;;;21.92;50.48;100999.13;5008301;28;20085;-49
2023/05/28 08:33:29;;;;;;;5.32;2.42;;;;;;;21.97;50.80;100989.28;5007599;28;20074;-46
2023/05/28 08:35:56;;;;;;;5.63;1.90;;;;;;;22.08;50.18;100988.88;5005886;28;20053;-47
2023/05/28 08:38:22;;;;;;;7.93;3.08;;;;;;;22.24;50.57;100997.09;5002242;28;20054;-46
2023/05/28 08:40:53;;;;;;;6.80;2.80;;;;;;;22.34;49.83;100995.84;5006306;28;20100;-48
2023/05/28 08:43:20;;;;;;;6.15;2.45;;;;;;;22.43;49.93;100996.41;5003473;28;20108;-47
2023/05/28 08:45:47;;;;;;;10.95;2.90;;;;;;;22.47;50.03;100993.59;5005086;28;20050;-46
2023/05/28 08:48:14;;;;;;;6.43;2.60;;;;;;;22.52;49.94;100993.41;5007536;28;20401;-48
2023/05/28 08:50:46;;;;;;;8.95;3.22;;;;;;;22.48;49.23;100986.53;5011039;28;20053;-49
2023/05/28 08:53:16;;;;;;;6.95;3.20;;;;;;;22.41;49.18;100990.31;4999240;28;20088;-52
2023/05/28 08:55:45;;;;;;;6.03;2.58;;;;;;;22.50;49.55;100979.44;5008974;28;20038;-49
2023/05/28 08:58:12;;;;;;;6.22;3.35;;;;;;;22.69;49.39;100986.66;4993180;28;20080;-49
2023/05/28 09:00:38;;;;;;;6.22;2.50;;;;;;;22.83;48.96;100981.69;4985703;28;20147;-49
2023/05/28 09:03:07;;;;;;;7.10;3.55;;;;;;;23.00;49.20;100985.44;4986039;28;20783;-51
2023/05/28 09:05:36;;;;;;;;;;;;;;;23.12;49.81;100986.75;4988807;28;20046;-46
2023/05/28 09:08:07;;;;;;;7.57;3.50;;;;;;;23.34;48.38;100992.00;5004963;28;19925;-52
2023/05/28 09:10:35;;;;;;;7.07;2.75;;;;;;;23.35;47.45;100985.84;5004523;28;20060;-52
2023/05/28 09:13:02;;;;;;;10.85;3.17;;;;;;;23.39;48.02;100985.69;5001318;28;20643;-49
2023/05/28 09:15:29;;;;;;;8.23;3.58;;;;;;;23.44;48.18;100986.38;5001160;28;20046;-49
2023/05/28 09:17:59;;;;;;;8.48;3.22;;;;;;;23.36;47.29;100987.56;5004025;28;20092;-47
2023/05/28 09:20:25;;;;;;;;;;;;;;;23.36;46.97;100994.59;5020116;28;20490;-48
2023/05/28 09:23:02;;;;;;;7.43;3.15;;;;;;;23.56;47.20;100991.13;5007867;28;19922;-52
2023/05/28 09:25:34;;;;;;;8.88;2.85;;;;;;;23.75;47.42;100990.34;4998551;28;20096;-49
2023/05/28 09:28:02;;;;;;;9.90;3.10;;;;;;;23.94;46.55;100984.25;4991449;28;20096;-49
2023/05/28 09:30:35;;;;;;;6.18;2.67;;;;;;;24.09;46.40;100999.44;5006177;28;20497;-47
2023/05/28 09:33:03;;;;;;;5.38;2.22;;;;;;;24.18;46.27;101002.66;4999978;28;20045;-52
2023/05/28 09:35:30;;;;;;;5.68;2.70;;;;;;;24.23;46.00;100990.03;5005273;28;20050;-49
2023/05/28 09:38:10;;;;;;;7.22;2.63;;;;;;;24.30;45.71;100990.63;5005110;28;20590;-51
2023/05/28 09:40:39;;;;;;;5.55;2.65;;;;;;;24.46;45.79;100991.66;4999647;28;20466;-49
2023/05/28 09:43:07;;;;;;;7.57;2.47;;;;;;;24.53;44.51;100997.50;5002273;28;20380;-49
2023/05/28 09:45:34;;;;;;;6.00;2.20;;;;;;;24.64;45.12;100995.22;5001158;28;20750;-52
2023/05/28 09:48:01;;;;;;;9.32;3.13;;;;;;;24.74;44.67;101000.06;5000627;28;20050;-51
2023/05/28 09:50:29;;;;;;;6.15;2.72;;;;;;;24.74;43.93;101006.25;4998829;28;20050;-50
2023/05/28 09:52:57;;;;;;;5.93;2.50;;;;;;;24.72;43.44;101001.94;5005855;28;20049;-48
2023/05/28 09:55:26;;;;;;;12.50;3.33;;;;;;;24.65;43.43;100999.59;5002755;28;20050;-50
2023/05/28 10:00:33;;;;;;;6.13;3.00;;;;;;;24.78;43.63;100996.34;5053958;27;20402;-46
2023/05/28 10:03:05;;;;;;;;;;;;;;;24.89;43.58;101012.63;5022031;28;20045;-48
2023/05/28 10:05:34;;;;;;;5.63;2.05;;;;;;;24.89;42.91;101007.31;5014141;28;19926;-48
2023/05/28 10:08:02;;;;;;;5.90;2.78;;;;;;;24.82;42.47;101012.97;5022740;28;20038;-50
2023/05/28 10:10:30;;;;;;;5.55;2.67;;;;;;;24.85;42.69;101013.69;5021347;28;20069;-48
2023/05/28 10:12:57;;;;;;;7.38;2.17;;;;;;;24.86;42.44;101023.34;5018474;28;20073;-47
2023/05/28 10:15:25;;;;;;;7.22;2.40;;;;;;;24.77;41.93;101018.47;5017250;28;20050;-48
2023/05/28 10:17:52;;;;;;;7.82;2.35;;;;;;;24.68;41.85;101016.28;5017444;28;20042;-49
2023/05/28 10:20:19;;;;;;;6.93;2.42;;;;;;;24.70;42.75;101009.09;5018456;28;20112;-48
2023/05/28 10:22:48;;;;;;;7.57;2.17;;;;;;;24.76;41.92;101003.53;5017428;28;20045;-51
2023/05/28 10:25:15;;;;;;;7.53;3.22;;;;;;;24.88;42.27;101002.97;5019286;28;20049;-49
2023/05/28 10:27:45;;;;;;;9.65;2.78;;;;;;;25.02;42.36;100998.78;5020200;28;20067;-46
2023/05/28 10:30:13;;;;;;;7.30;2.45;;;;;;;25.10;42.29;101007.22;5017842;28;20548;-48
2023/05/28 10:32:41;;;;;;;4.53;2.65;;;;;;;25.19;42.38;101010.34;5021167;28;20119;-48
2023/05/28 10:35:12;;;;;;;6.97;2.88;;;;;;;25.30;41.87;101013.34;5021075;28;20045;-48
2023/05/28 10:37:39;;;;;;;5.13;2.17;;;;;;;25.40;41.90;101017.22;5019981;28;20053;-50
2023/05/28 10:40:09;;;;;;;7.00;2.90;;;;;;;25.51;41.49;101015.84;5016033;28;20549;-49
2023/05/28 10:42:41;;;;;;;5.93;2.72;;;;;;;25.56;41.69;101016.44;5017674;28;20050;-48
2023/05/28 10:45:10;;;;;;;5.18;2.08;;;;;;;25.56;41.73;101015.63;5013328;28;20046;-46
2023/05/28 10:47:39;;;;;;;8.07;2.08;;;;;;;25.58;41.22;101006.66;5000025;28;20050;-50
2023/05/28 10:50:15;;;;;;;6.63;1.88;;;;;;;25.61;40.89;101014.47;5013837;28;20465;-47
2023/05/28 10:53:07;;;;;;;4.78;1.98;;;;;;;25.63;40.48;101011.75;4996985;28;20069;-50
2023/05/28 10:55:50;;;;;;;;;;;;;;;25.55;40.47;101006.78;4987019;28;20093;-49
2023/05/28 10:58:35;;;;;;;4.75;2.00;;;;;;;25.53;40.48;101006.03;5000997;28;19949;-49
2023/05/28 11:03:42;;;;;;;5.22;2.13;;;;;;;25.64;39.70;101021.41;5011458;28;20393;-46
2023/05/28 11:06:10;;;;;;;4.60;2.08;;;;;;;25.66;39.53;101020.41;4969078;28;20051;-49
2023/05/28 11:08:41;;;;;;;5.57;2.35;;;;;;;25.74;40.10;101017.31;4976870;28;20097;-47
2023/05/28 11:11:10;;;;;;;5.53;3.55;;;;;;;25.87;40.57;101017.56;4963292;28;20556;-50
2023/05/28 11:13:42;;;;;;;7.20;3.80;;;;;;;25.90;40.08;101017.41;4965415;28;20571;-47
2023/05/28 11:16:10;;;;;;;7.05;2.72;;;;;;;25.92;40.06;101020.84;4972410;28;20568;-49
2023/05/28 11:18:37;;;;;;;6.00;2.58;;;;;;;26.02;40.35;101015.03;4966631;28;20503;-51
2023/05/28 11:21:07;;;;;;;5.63;2.33;;;;;;;26.10;39.80;101018.16;4964620;28;20051;-46
2023/05/28 11:23:36;;;;;;;5.22;1.70;;;;;;;26.10;38.92;101012.84;4972480;28;20545;-49
2023/05/28 11:26:04;;;;;;;;;;;;;;;25.86;38.93;101007.88;4970972;28;20520;-46
2023/05/28 11:28:47;;;;;;;5.05;2.10;;;;;;;25.98;39.46;101013.50;4969513;28;19976;-48
2023/05/28 11:31:14;;;;;;;6.38;2.40;;;;;;;25.92;39.04;101010.22;4969926;28;20043;-48
2023/05/28 11:33:41;;;;;;;5.68;1.92;;;;;;;25.95;39.38;101009.22;4977703;28;20109;-46